PWSweather.com
Personal Weather Stations
Station Observations
SANDHURSTWX
SandhurstGB

SandhurstGB

Lat: 51.3522, Lon: -0.7739

Elevation: 272.3

Station Type: Davis VP2

www.sandhurstweather.org.uk

High Low Average
Temperature 68.3°F20.2°C 55.1°F12.8°C 61.7°F16.5°C
Dew Point 63.4°F17.4°C 49.4°F9.7°C 57.0°F13.9°C
Winds 6.9 mph 11.1 kmh Calm Calm 3.0 mph SW4.8 kmh SW
Wind Gusts 17.3 mph27.8 kmh -- 5.0 mph8.0 kmh
Humidity 90% 80% 84%
Pressure 30.24 in1024.0 mb 30.08 in1018.6 mb -
Precipitation 0.00 in0.0 mm - -
Hour Temp Dew Point Humidity Winds Wind Gusts Pressure Precip Precip Rate Daily Precip Total
12:00 AM 55.7°F13.2°C 50.0°F10.0°C 81% 2.3 mph SW3.7 kmh SW 4.6 mph7.4 kmh 30.14 in1020.7 mb - 0.00 in0.0 mm 0.00 in0.0 mm
01:00 AM 55.4°F13.0°C 49.7°F9.8°C 81% Calm Calm 2.3 mph3.7 kmh 30.13 in1020.3 mb - 0.00 in0.0 mm 0.00 in0.0 mm
02:00 AM 55.1°F12.8°C 49.4°F9.7°C 81% 3.5 mph SW5.6 kmh SW 4.6 mph7.4 kmh 30.12 in1020.0 mb - 0.00 in0.0 mm 0.00 in0.0 mm
03:00 AM 55.2°F12.9°C 49.5°F9.7°C 81% 2.3 mph SW3.7 kmh SW 3.5 mph5.6 kmh 30.11 in1019.6 mb - 0.00 in0.0 mm 0.00 in0.0 mm
04:00 AM 55.3°F12.9°C 49.9°F9.9°C 82% 3.5 mph S5.6 kmh S 4.6 mph7.4 kmh 30.10 in1019.3 mb - 0.00 in0.0 mm 0.00 in0.0 mm
05:00 AM 55.5°F13.1°C 50.8°F10.4°C 84% 3.5 mph S5.6 kmh S 3.5 mph5.6 kmh 30.09 in1019.0 mb - 0.00 in0.0 mm 0.00 in0.0 mm
06:00 AM 56.2°F13.4°C 51.7°F10.9°C 85% 3.5 mph SSW5.6 kmh SSW 5.8 mph9.3 kmh 30.09 in1019.0 mb - 0.00 in0.0 mm 0.00 in0.0 mm
07:00 AM 57.5°F14.2°C 53.6°F12.0°C 87% 1.2 mph SSW1.9 kmh SSW 3.5 mph5.6 kmh 30.08 in1018.6 mb - 0.00 in0.0 mm 0.00 in0.0 mm
08:00 AM 59.2°F15.1°C 56.0°F13.3°C 89% 3.5 mph S5.6 kmh S 4.6 mph7.4 kmh 30.09 in1019.0 mb - 0.00 in0.0 mm 0.00 in0.0 mm
09:00 AM 61.3°F16.3°C 58.4°F14.7°C 90% 4.6 mph SSW7.4 kmh SSW 6.9 mph11.1 kmh 30.09 in1019.0 mb - 0.00 in0.0 mm 0.00 in0.0 mm
10:00 AM 66.5°F19.2°C 60.9°F16.1°C 82% 2.3 mph SW3.7 kmh SW 8.1 mph13.0 kmh 30.10 in1019.3 mb - 0.00 in0.0 mm 0.00 in0.0 mm
11:00 AM 67.7°F19.8°C 61.3°F16.3°C 80% 4.6 mph SSW7.4 kmh SSW 10.4 mph16.7 kmh 30.09 in1019.0 mb - 0.00 in0.0 mm 0.00 in0.0 mm
12:00 PM 67.7°F19.8°C 61.3°F16.3°C 80% 4.6 mph SW7.4 kmh SW 8.1 mph13.0 kmh 30.11 in1019.6 mb - 0.00 in0.0 mm 0.00 in0.0 mm
01:00 PM 67.1°F19.5°C 62.1°F16.7°C 84% 2.3 mph SW3.7 kmh SW 3.5 mph5.6 kmh 30.11 in1019.6 mb - 0.00 in0.0 mm 0.00 in0.0 mm
02:00 PM 67.3°F19.6°C 63.0°F17.2°C 86% 3.5 mph SW5.6 kmh SW 9.2 mph14.8 kmh 30.11 in1019.6 mb - 0.00 in0.0 mm 0.00 in0.0 mm
03:00 PM 67.4°F19.7°C 62.7°F17.1°C 85% 3.5 mph SW5.6 kmh SW 3.5 mph5.6 kmh 30.12 in1020.0 mb - 0.00 in0.0 mm 0.00 in0.0 mm
04:00 PM 67.4°F19.7°C 63.4°F17.4°C 87% 1.2 mph SW1.9 kmh SW 4.6 mph7.4 kmh 30.13 in1020.3 mb - 0.00 in0.0 mm 0.00 in0.0 mm
05:00 PM 68.3°F20.2°C 63.0°F17.2°C 83% 6.9 mph W11.1 kmh W 17.3 mph27.8 kmh 30.14 in1020.7 mb - 0.00 in0.0 mm 0.00 in0.0 mm
06:00 PM 66.7°F19.3°C 61.7°F16.5°C 84% 1.2 mph WSW1.9 kmh WSW 1.2 mph1.9 kmh 30.15 in1021.0 mb - 0.00 in0.0 mm 0.00 in0.0 mm
07:00 PM 65.2°F18.4°C 60.6°F15.9°C 85% 2.3 mph SSW3.7 kmh SSW 4.6 mph7.4 kmh 30.17 in1021.7 mb - 0.00 in0.0 mm 0.00 in0.0 mm
08:00 PM 63.5°F17.5°C 59.6°F15.3°C 87% 1.2 mph SW1.9 kmh SW 2.3 mph3.7 kmh 30.19 in1022.4 mb - 0.00 in0.0 mm 0.00 in0.0 mm
09:00 PM 61.5°F16.4°C 57.3°F14.1°C 86% 1.2 mph W1.9 kmh W 3.5 mph5.6 kmh 30.21 in1023.0 mb - 0.00 in0.0 mm 0.00 in0.0 mm
10:00 PM 59.8°F15.4°C 55.9°F13.3°C 87% Calm Calm -- 30.22 in1023.4 mb - 0.00 in0.0 mm 0.00 in0.0 mm
11:00 PM 58.2°F14.6°C 55.3°F12.9°C 90% Calm Calm 1.2 mph1.9 kmh 30.24 in1024.0 mb - 0.00 in0.0 mm 0.00 in0.0 mm